sensor_id;sensor_type;location;lat;lon;timestamp;temperature;humidity
23987;DHT22;12514;52.140;5.602;2022-08-21T00:01:25;17.00;99.90
23987;DHT22;12514;52.140;5.602;2022-08-21T00:03:51;16.90;99.90
23987;DHT22;12514;52.140;5.602;2022-08-21T00:06:17;16.90;99.90
23987;DHT22;12514;52.140;5.602;2022-08-21T00:08:43;16.90;99.90
23987;DHT22;12514;52.140;5.602;2022-08-21T00:15:14;16.90;99.90
23987;DHT22;12514;52.140;5.602;2022-08-21T00:17:40;16.80;99.90
23987;DHT22;12514;52.140;5.602;2022-08-21T00:20:08;16.80;99.90
23987;DHT22;12514;52.140;5.602;2022-08-21T00:22:35;16.80;99.90
23987;DHT22;12514;52.140;5.602;2022-08-21T00:25:02;16.70;99.90
23987;DHT22;12514;52.140;5.602;2022-08-21T00:27:28;16.70;99.90
23987;DHT22;12514;52.140;5.602;2022-08-21T00:29:54;16.70;99.90
23987;DHT22;12514;52.140;5.602;2022-08-21T00:32:22;16.70;99.90
23987;DHT22;12514;52.140;5.602;2022-08-21T00:34:49;16.60;99.90
23987;DHT22;12514;52.140;5.602;2022-08-21T00:37:14;16.60;99.90
23987;DHT22;12514;52.140;5.602;2022-08-21T00:39:40;16.60;99.90
23987;DHT22;12514;52.140;5.602;2022-08-21T00:42:06;16.60;99.90
23987;DHT22;12514;52.140;5.602;2022-08-21T00:44:32;16.70;99.90
23987;DHT22;12514;52.140;5.602;2022-08-21T00:46:58;16.70;99.90
23987;DHT22;12514;52.140;5.602;2022-08-21T00:49:23;16.60;99.90
23987;DHT22;12514;52.140;5.602;2022-08-21T00:51:53;16.70;99.90
23987;DHT22;12514;52.140;5.602;2022-08-21T00:54:24;16.50;99.90
23987;DHT22;12514;52.140;5.602;2022-08-21T00:56:54;16.60;99.90
23987;DHT22;12514;52.140;5.602;2022-08-21T00:59:21;16.50;99.90
23987;DHT22;12514;52.140;5.602;2022-08-21T01:01:48;16.60;99.90
23987;DHT22;12514;52.140;5.602;2022-08-21T01:04:15;16.40;99.90
23987;DHT22;12514;52.140;5.602;2022-08-21T01:06:42;16.40;99.90
23987;DHT22;12514;52.140;5.602;2022-08-21T01:09:08;16.40;99.90
23987;DHT22;12514;52.140;5.602;2022-08-21T01:14:56;16.40;99.90
23987;DHT22;12514;52.140;5.602;2022-08-21T01:17:23;16.30;99.90
23987;DHT22;12514;52.140;5.602;2022-08-21T01:19:49;16.30;99.90
23987;DHT22;12514;52.140;5.602;2022-08-21T01:22:14;16.30;99.90
23987;DHT22;12514;52.140;5.602;2022-08-21T01:24:40;16.30;99.90
23987;DHT22;12514;52.140;5.602;2022-08-21T01:27:06;16.20;99.90
23987;DHT22;12514;52.140;5.602;2022-08-21T01:29:45;16.20;99.90
23987;DHT22;12514;52.140;5.602;2022-08-21T01:32:15;16.20;99.90
23987;DHT22;12514;52.140;5.602;2022-08-21T01:34:44;16.20;99.90
23987;DHT22;12514;52.140;5.602;2022-08-21T01:37:10;16.20;99.90
23987;DHT22;12514;52.140;5.602;2022-08-21T01:39:36;16.20;99.90
23987;DHT22;12514;52.140;5.602;2022-08-21T01:42:03;16.10;99.90
23987;DHT22;12514;52.140;5.602;2022-08-21T01:44:30;16.10;99.90
23987;DHT22;12514;52.140;5.602;2022-08-21T01:46:58;16.10;99.90
23987;DHT22;12514;52.140;5.602;2022-08-21T01:49:24;16.00;99.90
23987;DHT22;12514;52.140;5.602;2022-08-21T01:51:49;16.00;99.90
23987;DHT22;12514;52.140;5.602;2022-08-21T01:54:15;16.00;99.90
23987;DHT22;12514;52.140;5.602;2022-08-21T02:00:06;16.10;99.90
23987;DHT22;12514;52.140;5.602;2022-08-21T02:02:33;16.00;99.90
23987;DHT22;12514;52.140;5.602;2022-08-21T02:04:59;16.00;99.90
23987;DHT22;12514;52.140;5.602;2022-08-21T02:07:25;15.90;99.90
23987;DHT22;12514;52.140;5.602;2022-08-21T02:09:51;15.90;99.90
23987;DHT22;12514;52.140;5.602;2022-08-21T02:12:16;16.00;99.90
23987;DHT22;12514;52.140;5.602;2022-08-21T02:14:42;16.00;99.90
23987;DHT22;12514;52.140;5.602;2022-08-21T02:17:07;15.90;99.90
23987;DHT22;12514;52.140;5.602;2022-08-21T02:19:33;15.90;99.90
23987;DHT22;12514;52.140;5.602;2022-08-21T02:21:59;15.90;99.90
23987;DHT22;12514;52.140;5.602;2022-08-21T02:24:24;15.80;99.90
23987;DHT22;12514;52.140;5.602;2022-08-21T02:26:50;15.80;99.90
23987;DHT22;12514;52.140;5.602;2022-08-21T02:29:16;15.70;99.90
23987;DHT22;12514;52.140;5.602;2022-08-21T02:31:41;15.80;99.90
23987;DHT22;12514;52.140;5.602;2022-08-21T02:34:07;15.80;99.90
23987;DHT22;12514;52.140;5.602;2022-08-21T02:36:34;15.80;99.90
23987;DHT22;12514;52.140;5.602;2022-08-21T02:39:00;15.80;99.90
23987;DHT22;12514;52.140;5.602;2022-08-21T02:41:25;15.80;99.90
23987;DHT22;12514;52.140;5.602;2022-08-21T02:43:51;15.70;99.90
23987;DHT22;12514;52.140;5.602;2022-08-21T02:46:18;15.70;99.90
23987;DHT22;12514;52.140;5.602;2022-08-21T02:48:45;15.60;99.90
23987;DHT22;12514;52.140;5.602;2022-08-21T02:51:15;15.60;99.90
23987;DHT22;12514;52.140;5.602;2022-08-21T02:53:43;15.60;99.90
23987;DHT22;12514;52.140;5.602;2022-08-21T02:56:11;15.60;99.90
23987;DHT22;12514;52.140;5.602;2022-08-21T02:58:41;15.60;99.90
23987;DHT22;12514;52.140;5.602;2022-08-21T03:01:09;15.60;99.90
23987;DHT22;12514;52.140;5.602;2022-08-21T03:03:41;15.50;99.90
23987;DHT22;12514;52.140;5.602;2022-08-21T03:06:08;15.50;99.90
23987;DHT22;12514;52.140;5.602;2022-08-21T03:08:35;15.50;99.90
23987;DHT22;12514;52.140;5.602;2022-08-21T03:11:01;15.50;99.90
23987;DHT22;12514;52.140;5.602;2022-08-21T03:13:27;15.40;99.90
23987;DHT22;12514;52.140;5.602;2022-08-21T03:15:54;15.40;99.90
23987;DHT22;12514;52.140;5.602;2022-08-21T03:18:19;15.40;99.90
23987;DHT22;12514;52.140;5.602;2022-08-21T03:20:45;15.40;99.90
23987;DHT22;12514;52.140;5.602;2022-08-21T03:23:12;15.40;99.90
23987;DHT22;12514;52.140;5.602;2022-08-21T03:28:59;15.50;99.90
23987;DHT22;12514;52.140;5.602;2022-08-21T03:31:25;15.50;99.90
23987;DHT22;12514;52.140;5.602;2022-08-21T03:33:56;15.60;99.90
23987;DHT22;12514;52.140;5.602;2022-08-21T03:36:22;15.60;99.90
23987;DHT22;12514;52.140;5.602;2022-08-21T03:38:48;15.60;99.90
23987;DHT22;12514;52.140;5.602;2022-08-21T03:44:36;15.50;99.90
23987;DHT22;12514;52.140;5.602;2022-08-21T03:47:02;15.40;99.90
23987;DHT22;12514;52.140;5.602;2022-08-21T03:49:28;15.40;99.90
23987;DHT22;12514;52.140;5.602;2022-08-21T03:51:54;15.30;99.90
23987;DHT22;12514;52.140;5.602;2022-08-21T03:54:19;15.30;99.90
23987;DHT22;12514;52.140;5.602;2022-08-21T04:00:08;15.30;99.90
23987;DHT22;12514;52.140;5.602;2022-08-21T04:02:37;15.20;99.90
23987;DHT22;12514;52.140;5.602;2022-08-21T04:05:03;15.20;99.90
23987;DHT22;12514;52.140;5.602;2022-08-21T04:07:29;15.10;99.90
23987;DHT22;12514;52.140;5.602;2022-08-21T04:09:55;15.10;99.90
23987;DHT22;12514;52.140;5.602;2022-08-21T04:15:43;15.20;99.90
23987;DHT22;12514;52.140;5.602;2022-08-21T04:18:09;15.10;99.90
23987;DHT22;12514;52.140;5.602;2022-08-21T04:20:35;15.10;99.90
23987;DHT22;12514;52.140;5.602;2022-08-21T04:23:01;14.90;99.90
23987;DHT22;12514;52.140;5.602;2022-08-21T04:25:27;15.10;99.90
23987;DHT22;12514;52.140;5.602;2022-08-21T04:31:15;15.20;99.90
23987;DHT22;12514;52.140;5.602;2022-08-21T04:33:41;15.20;99.90
23987;DHT22;12514;52.140;5.602;2022-08-21T04:36:07;15.30;99.90
23987;DHT22;12514;52.140;5.602;2022-08-21T04:38:33;15.20;99.90
23987;DHT22;12514;52.140;5.602;2022-08-21T04:40:59;15.30;99.90
23987;DHT22;12514;52.140;5.602;2022-08-21T04:43:24;15.30;99.90
23987;DHT22;12514;52.140;5.602;2022-08-21T04:45:51;15.40;99.90
23987;DHT22;12514;52.140;5.602;2022-08-21T04:48:20;15.40;99.90
23987;DHT22;12514;52.140;5.602;2022-08-21T04:50:47;15.40;99.90
23987;DHT22;12514;52.140;5.602;2022-08-21T04:55:49;15.40;99.90
23987;DHT22;12514;52.140;5.602;2022-08-21T05:01:39;15.40;99.90
23987;DHT22;12514;52.140;5.602;2022-08-21T05:04:08;15.30;99.90
23987;DHT22;12514;52.140;5.602;2022-08-21T05:06:36;15.40;99.90
23987;DHT22;12514;52.140;5.602;2022-08-21T05:09:04;15.40;99.90
23987;DHT22;12514;52.140;5.602;2022-08-21T05:11:31;15.30;99.90
23987;DHT22;12514;52.140;5.602;2022-08-21T05:13:57;15.30;99.90
23987;DHT22;12514;52.140;5.602;2022-08-21T05:16:22;15.30;99.90
23987;DHT22;12514;52.140;5.602;2022-08-21T05:18:48;15.30;99.90
23987;DHT22;12514;52.140;5.602;2022-08-21T05:21:14;15.30;99.90
23987;DHT22;12514;52.140;5.602;2022-08-21T05:23:39;15.30;99.90
23987;DHT22;12514;52.140;5.602;2022-08-21T05:26:05;15.30;99.90
23987;DHT22;12514;52.140;5.602;2022-08-21T05:31:52;15.50;99.90
23987;DHT22;12514;52.140;5.602;2022-08-21T05:34:21;15.50;99.90
23987;DHT22;12514;52.140;5.602;2022-08-21T05:36:47;15.50;99.90
23987;DHT22;12514;52.140;5.602;2022-08-21T05:39:12;15.60;99.90
23987;DHT22;12514;52.140;5.602;2022-08-21T05:41:38;15.70;99.90
23987;DHT22;12514;52.140;5.602;2022-08-21T05:44:04;15.70;99.90
23987;DHT22;12514;52.140;5.602;2022-08-21T05:46:29;15.80;99.90
23987;DHT22;12514;52.140;5.602;2022-08-21T05:48:55;16.00;99.90
23987;DHT22;12514;52.140;5.602;2022-08-21T05:51:21;16.10;99.90
23987;DHT22;12514;52.140;5.602;2022-08-21T05:53:47;16.20;99.90
23987;DHT22;12514;52.140;5.602;2022-08-21T05:56:13;16.20;99.90
23987;DHT22;12514;52.140;5.602;2022-08-21T06:02:01;16.40;99.90
23987;DHT22;12514;52.140;5.602;2022-08-21T06:04:27;16.40;99.90
23987;DHT22;12514;52.140;5.602;2022-08-21T06:06:53;16.50;99.90
23987;DHT22;12514;52.140;5.602;2022-08-21T06:09:18;16.60;99.90
23987;DHT22;12514;52.140;5.602;2022-08-21T06:11:44;16.50;99.90
23987;DHT22;12514;52.140;5.602;2022-08-21T06:14:14;16.60;99.90
23987;DHT22;12514;52.140;5.602;2022-08-21T06:16:40;16.60;99.90
23987;DHT22;12514;52.140;5.602;2022-08-21T06:19:05;16.70;99.90
23987;DHT22;12514;52.140;5.602;2022-08-21T06:21:31;16.80;99.90
23987;DHT22;12514;52.140;5.602;2022-08-21T06:23:57;16.80;99.90
23987;DHT22;12514;52.140;5.602;2022-08-21T06:26:23;16.90;99.90
23987;DHT22;12514;52.140;5.602;2022-08-21T06:28:49;17.00;99.90
23987;DHT22;12514;52.140;5.602;2022-08-21T06:31:18;17.10;99.90
23987;DHT22;12514;52.140;5.602;2022-08-21T06:33:44;17.20;99.90
23987;DHT22;12514;52.140;5.602;2022-08-21T06:36:10;17.20;99.90
23987;DHT22;12514;52.140;5.602;2022-08-21T06:38:37;17.20;99.90
23987;DHT22;12514;52.140;5.602;2022-08-21T06:41:03;17.40;99.90
23987;DHT22;12514;52.140;5.602;2022-08-21T06:43:29;17.30;99.90
23987;DHT22;12514;52.140;5.602;2022-08-21T06:45:54;17.30;99.90
23987;DHT22;12514;52.140;5.602;2022-08-21T06:48:20;17.40;99.90
23987;DHT22;12514;52.140;5.602;2022-08-21T06:50:47;17.40;99.90
23987;DHT22;12514;52.140;5.602;2022-08-21T06:53:16;17.50;99.90
23987;DHT22;12514;52.140;5.602;2022-08-21T06:55:42;17.60;99.90
23987;DHT22;12514;52.140;5.602;2022-08-21T06:58:09;17.70;99.90
23987;DHT22;12514;52.140;5.602;2022-08-21T07:00:38;17.80;99.90
23987;DHT22;12514;52.140;5.602;2022-08-21T07:03:03;17.90;99.90
23987;DHT22;12514;52.140;5.602;2022-08-21T07:05:30;18.00;99.90
23987;DHT22;12514;52.140;5.602;2022-08-21T07:07:56;18.10;99.90
23987;DHT22;12514;52.140;5.602;2022-08-21T07:10:23;18.20;99.90
23987;DHT22;12514;52.140;5.602;2022-08-21T07:12:53;18.30;99.90
23987;DHT22;12514;52.140;5.602;2022-08-21T07:15:20;18.30;99.90
23987;DHT22;12514;52.140;5.602;2022-08-21T07:17:49;18.30;99.90
23987;DHT22;12514;52.140;5.602;2022-08-21T07:20:14;18.40;99.90
23987;DHT22;12514;52.140;5.602;2022-08-21T07:22:41;18.40;99.90
23987;DHT22;12514;52.140;5.602;2022-08-21T07:25:07;18.40;99.90
23987;DHT22;12514;52.140;5.602;2022-08-21T07:27:33;18.50;99.90
23987;DHT22;12514;52.140;5.602;2022-08-21T07:29:59;18.60;99.90
23987;DHT22;12514;52.140;5.602;2022-08-21T07:32:26;18.70;99.90
23987;DHT22;12514;52.140;5.602;2022-08-21T07:34:51;18.70;99.90
23987;DHT22;12514;52.140;5.602;2022-08-21T07:37:17;18.90;99.90
23987;DHT22;12514;52.140;5.602;2022-08-21T07:39:43;19.00;99.90
23987;DHT22;12514;52.140;5.602;2022-08-21T07:42:09;19.00;99.90
23987;DHT22;12514;52.140;5.602;2022-08-21T07:44:41;19.00;99.90
23987;DHT22;12514;52.140;5.602;2022-08-21T07:47:07;19.00;99.90
23987;DHT22;12514;52.140;5.602;2022-08-21T07:49:32;19.00;99.90
23987;DHT22;12514;52.140;5.602;2022-08-21T07:51:58;19.10;99.90
23987;DHT22;12514;52.140;5.602;2022-08-21T07:54:25;19.00;99.90
23987;DHT22;12514;52.140;5.602;2022-08-21T07:56:51;19.00;99.90
23987;DHT22;12514;52.140;5.602;2022-08-21T08:02:39;19.20;99.90
23987;DHT22;12514;52.140;5.602;2022-08-21T08:05:07;19.20;99.90
23987;DHT22;12514;52.140;5.602;2022-08-21T08:07:33;19.30;99.90
23987;DHT22;12514;52.140;5.602;2022-08-21T08:10:00;19.30;99.90
23987;DHT22;12514;52.140;5.602;2022-08-21T08:12:26;19.30;99.90
23987;DHT22;12514;52.140;5.602;2022-08-21T08:14:58;19.40;99.90
23987;DHT22;12514;52.140;5.602;2022-08-21T08:17:24;19.40;99.90
23987;DHT22;12514;52.140;5.602;2022-08-21T08:19:51;19.40;99.90
23987;DHT22;12514;52.140;5.602;2022-08-21T08:22:20;19.50;99.90
23987;DHT22;12514;52.140;5.602;2022-08-21T08:24:47;19.60;99.90
23987;DHT22;12514;52.140;5.602;2022-08-21T08:27:14;19.50;99.90
23987;DHT22;12514;52.140;5.602;2022-08-21T08:33:02;19.70;99.90
23987;DHT22;12514;52.140;5.602;2022-08-21T08:35:28;19.80;99.90
23987;DHT22;12514;52.140;5.602;2022-08-21T08:37:54;19.90;99.90
23987;DHT22;12514;52.140;5.602;2022-08-21T08:40:28;19.90;99.90
23987;DHT22;12514;52.140;5.602;2022-08-21T08:42:56;19.90;99.90
23987;DHT22;12514;52.140;5.602;2022-08-21T08:45:22;20.10;99.90
23987;DHT22;12514;52.140;5.602;2022-08-21T08:47:56;20.30;99.90
23987;DHT22;12514;52.140;5.602;2022-08-21T08:50:49;20.40;99.90
23987;DHT22;12514;52.140;5.602;2022-08-21T08:53:35;20.50;99.90
23987;DHT22;12514;52.140;5.602;2022-08-21T08:56:05;20.50;99.90
23987;DHT22;12514;52.140;5.602;2022-08-21T08:58:37;20.60;99.90
23987;DHT22;12514;52.140;5.602;2022-08-21T09:01:16;20.70;99.90
23987;DHT22;12514;52.140;5.602;2022-08-21T09:03:47;20.70;99.90
23987;DHT22;12514;52.140;5.602;2022-08-21T09:06:34;20.90;99.90
23987;DHT22;12514;52.140;5.602;2022-08-21T09:12:06;20.90;99.90
23987;DHT22;12514;52.140;5.602;2022-08-21T09:20:55;20.70;99.90
23987;DHT22;12514;52.140;5.602;2022-08-21T09:23:34;20.80;99.90
23987;DHT22;12514;52.140;5.602;2022-08-21T09:26:11;20.90;99.90
23987;DHT22;12514;52.140;5.602;2022-08-21T09:31:58;21.00;99.90
23987;DHT22;12514;52.140;5.602;2022-08-21T09:34:27;21.20;99.90
23987;DHT22;12514;52.140;5.602;2022-08-21T09:36:53;21.40;99.90
23987;DHT22;12514;52.140;5.602;2022-08-21T09:39:25;21.40;99.90
23987;DHT22;12514;52.140;5.602;2022-08-21T09:42:01;21.40;99.90
23987;DHT22;12514;52.140;5.602;2022-08-21T09:47:49;21.50;99.90
23987;DHT22;12514;52.140;5.602;2022-08-21T09:50:21;21.50;99.90
23987;DHT22;12514;52.140;5.602;2022-08-21T09:52:55;21.70;99.90
23987;DHT22;12514;52.140;5.602;2022-08-21T09:58:40;22.00;99.90
23987;DHT22;12514;52.140;5.602;2022-08-21T10:01:13;22.20;99.90
23987;DHT22;12514;52.140;5.602;2022-08-21T10:03:39;22.20;99.90
23987;DHT22;12514;52.140;5.602;2022-08-21T10:06:08;22.40;99.90
23987;DHT22;12514;52.140;5.602;2022-08-21T10:08:39;22.60;99.90
23987;DHT22;12514;52.140;5.602;2022-08-21T10:11:13;22.50;99.90
23987;DHT22;12514;52.140;5.602;2022-08-21T10:13:59;22.30;99.90
23987;DHT22;12514;52.140;5.602;2022-08-21T10:16:54;22.40;99.90
23987;DHT22;12514;52.140;5.602;2022-08-21T10:22:01;22.50;99.90
23987;DHT22;12514;52.140;5.602;2022-08-21T10:30:13;22.80;99.90
23987;DHT22;12514;52.140;5.602;2022-08-21T10:35:33;22.70;99.90
23987;DHT22;12514;52.140;5.602;2022-08-21T10:41:01;22.80;99.90
23987;DHT22;12514;52.140;5.602;2022-08-21T10:50:11;22.40;99.90
23987;DHT22;12514;52.140;5.602;2022-08-21T10:55:23;22.40;99.90
23987;DHT22;12514;52.140;5.602;2022-08-21T10:57:58;22.40;99.90
23987;DHT22;12514;52.140;5.602;2022-08-21T11:03:52;22.70;99.90
23987;DHT22;12514;52.140;5.602;2022-08-21T11:06:23;22.80;99.90
23987;DHT22;12514;52.140;5.602;2022-08-21T11:08:53;22.80;99.90
23987;DHT22;12514;52.140;5.602;2022-08-21T11:11:31;23.00;99.90
23987;DHT22;12514;52.140;5.602;2022-08-21T11:14:02;23.20;99.90
23987;DHT22;12514;52.140;5.602;2022-08-21T11:17:06;23.40;99.90
23987;DHT22;12514;52.140;5.602;2022-08-21T11:19:45;23.40;99.90
23987;DHT22;12514;52.140;5.602;2022-08-21T11:24:43;23.50;99.90
23987;DHT22;12514;52.140;5.602;2022-08-21T11:27:28;23.70;99.90
23987;DHT22;12514;52.140;5.602;2022-08-21T11:29:57;23.60;99.90
23987;DHT22;12514;52.140;5.602;2022-08-21T11:37:53;23.90;99.90
23987;DHT22;12514;52.140;5.602;2022-08-21T11:48:31;24.30;99.90
23987;DHT22;12514;52.140;5.602;2022-08-21T11:51:01;24.20;99.90
23987;DHT22;12514;52.140;5.602;2022-08-21T11:53:35;24.20;99.90
23987;DHT22;12514;52.140;5.602;2022-08-21T11:56:10;24.30;99.90
23987;DHT22;12514;52.140;5.602;2022-08-21T11:58:47;24.30;99.90
23987;DHT22;12514;52.140;5.602;2022-08-21T12:01:21;24.20;99.90
23987;DHT22;12514;52.140;5.602;2022-08-21T12:04:00;24.20;99.90
23987;DHT22;12514;52.140;5.602;2022-08-21T12:06:38;24.20;99.90
23987;DHT22;12514;52.140;5.602;2022-08-21T12:12:23;24.30;99.90
23987;DHT22;12514;52.140;5.602;2022-08-21T12:18:38;24.70;99.90
23987;DHT22;12514;52.140;5.602;2022-08-21T12:21:26;24.90;99.90
23987;DHT22;12514;52.140;5.602;2022-08-21T12:29:28;24.40;99.90
23987;DHT22;12514;52.140;5.602;2022-08-21T12:34:54;24.40;99.90
23987;DHT22;12514;52.140;5.602;2022-08-21T12:39:52;24.10;99.90
23987;DHT22;12514;52.140;5.602;2022-08-21T12:42:24;24.20;99.90
23987;DHT22;12514;52.140;5.602;2022-08-21T12:48:33;24.00;99.90
23987;DHT22;12514;52.140;5.602;2022-08-21T12:53:49;23.90;99.90
23987;DHT22;12514;52.140;5.602;2022-08-21T12:56:18;23.90;99.90
23987;DHT22;12514;52.140;5.602;2022-08-21T12:58:47;23.80;99.90
23987;DHT22;12514;52.140;5.602;2022-08-21T13:04:38;23.60;99.90
23987;DHT22;12514;52.140;5.602;2022-08-21T13:07:16;23.80;99.90
23987;DHT22;12514;52.140;5.602;2022-08-21T13:09:49;24.10;99.90
23987;DHT22;12514;52.140;5.602;2022-08-21T13:12:16;24.40;99.90
23987;DHT22;12514;52.140;5.602;2022-08-21T13:14:44;24.40;99.90
23987;DHT22;12514;52.140;5.602;2022-08-21T13:21:15;24.40;99.90
23987;DHT22;12514;52.140;5.602;2022-08-21T13:23:41;24.60;99.90
23987;DHT22;12514;52.140;5.602;2022-08-21T13:26:18;24.60;99.90
23987;DHT22;12514;52.140;5.602;2022-08-21T13:28:45;24.50;99.90
23987;DHT22;12514;52.140;5.602;2022-08-21T13:31:17;24.60;99.90
23987;DHT22;12514;52.140;5.602;2022-08-21T13:33:49;24.70;99.90
23987;DHT22;12514;52.140;5.602;2022-08-21T13:36:24;24.80;99.90
23987;DHT22;12514;52.140;5.602;2022-08-21T13:38:51;24.90;99.90
23987;DHT22;12514;52.140;5.602;2022-08-21T13:41:39;25.00;99.90
23987;DHT22;12514;52.140;5.602;2022-08-21T13:46:40;25.20;99.90
23987;DHT22;12514;52.140;5.602;2022-08-21T13:49:08;24.90;99.90
23987;DHT22;12514;52.140;5.602;2022-08-21T13:51:36;24.90;99.90
23987;DHT22;12514;52.140;5.602;2022-08-21T13:54:20;24.60;99.90
23987;DHT22;12514;52.140;5.602;2022-08-21T13:56:47;24.60;99.90
23987;DHT22;12514;52.140;5.602;2022-08-21T13:59:33;24.50;99.90
23987;DHT22;12514;52.140;5.602;2022-08-21T14:07:20;24.50;99.90
23987;DHT22;12514;52.140;5.602;2022-08-21T14:09:49;24.40;99.90
23987;DHT22;12514;52.140;5.602;2022-08-21T14:12:28;24.50;99.90
23987;DHT22;12514;52.140;5.602;2022-08-21T14:14:56;24.70;99.90
23987;DHT22;12514;52.140;5.602;2022-08-21T14:17:33;24.70;99.90
23987;DHT22;12514;52.140;5.602;2022-08-21T14:20:03;24.60;99.90
23987;DHT22;12514;52.140;5.602;2022-08-21T14:27:33;24.60;99.90
23987;DHT22;12514;52.140;5.602;2022-08-21T14:30:03;24.80;99.90
23987;DHT22;12514;52.140;5.602;2022-08-21T14:32:37;24.60;99.90
23987;DHT22;12514;52.140;5.602;2022-08-21T14:35:03;24.70;99.90
23987;DHT22;12514;52.140;5.602;2022-08-21T14:37:29;24.60;99.90
23987;DHT22;12514;52.140;5.602;2022-08-21T14:39:55;24.60;99.90
23987;DHT22;12514;52.140;5.602;2022-08-21T14:42:21;24.40;99.90
23987;DHT22;12514;52.140;5.602;2022-08-21T14:44:47;24.20;99.90
23987;DHT22;12514;52.140;5.602;2022-08-21T14:47:12;24.20;99.90
23987;DHT22;12514;52.140;5.602;2022-08-21T14:49:38;24.20;99.90
23987;DHT22;12514;52.140;5.602;2022-08-21T14:52:05;24.00;99.90
23987;DHT22;12514;52.140;5.602;2022-08-21T14:54:31;23.80;99.90
23987;DHT22;12514;52.140;5.602;2022-08-21T14:57:04;23.80;99.90
23987;DHT22;12514;52.140;5.602;2022-08-21T14:59:30;23.90;99.90
23987;DHT22;12514;52.140;5.602;2022-08-21T15:01:58;24.00;99.90
23987;DHT22;12514;52.140;5.602;2022-08-21T15:04:24;24.00;99.90
23987;DHT22;12514;52.140;5.602;2022-08-21T15:06:50;23.80;99.90
23987;DHT22;12514;52.140;5.602;2022-08-21T15:09:15;23.90;99.90
23987;DHT22;12514;52.140;5.602;2022-08-21T15:11:41;24.00;99.90
23987;DHT22;12514;52.140;5.602;2022-08-21T15:14:09;23.90;99.90
23987;DHT22;12514;52.140;5.602;2022-08-21T15:16:36;23.90;99.90
23987;DHT22;12514;52.140;5.602;2022-08-21T15:19:01;24.00;99.90
23987;DHT22;12514;52.140;5.602;2022-08-21T15:21:29;23.90;99.90
23987;DHT22;12514;52.140;5.602;2022-08-21T15:23:55;23.80;99.90
23987;DHT22;12514;52.140;5.602;2022-08-21T15:26:22;23.90;99.90
23987;DHT22;12514;52.140;5.602;2022-08-21T15:28:48;23.80;99.90
23987;DHT22;12514;52.140;5.602;2022-08-21T15:31:14;23.90;99.90
23987;DHT22;12514;52.140;5.602;2022-08-21T15:33:39;23.90;99.90
23987;DHT22;12514;52.140;5.602;2022-08-21T15:36:05;23.80;99.90
23987;DHT22;12514;52.140;5.602;2022-08-21T15:38:31;24.00;99.90
23987;DHT22;12514;52.140;5.602;2022-08-21T15:40:57;24.20;99.90
23987;DHT22;12514;52.140;5.602;2022-08-21T15:43:28;24.20;99.90
23987;DHT22;12514;52.140;5.602;2022-08-21T15:45:54;24.10;99.90
23987;DHT22;12514;52.140;5.602;2022-08-21T15:51:41;24.10;99.90
23987;DHT22;12514;52.140;5.602;2022-08-21T15:54:07;24.00;99.90
23987;DHT22;12514;52.140;5.602;2022-08-21T15:56:35;24.10;99.90
23987;DHT22;12514;52.140;5.602;2022-08-21T15:59:07;24.10;99.90
23987;DHT22;12514;52.140;5.602;2022-08-21T16:01:35;23.90;99.90
23987;DHT22;12514;52.140;5.602;2022-08-21T16:04:02;23.90;99.90
23987;DHT22;12514;52.140;5.602;2022-08-21T16:06:29;24.00;99.90
23987;DHT22;12514;52.140;5.602;2022-08-21T16:08:56;24.10;99.90
23987;DHT22;12514;52.140;5.602;2022-08-21T16:11:22;24.00;99.90
23987;DHT22;12514;52.140;5.602;2022-08-21T16:13:48;24.00;99.90
23987;DHT22;12514;52.140;5.602;2022-08-21T16:16:19;24.20;99.90
23987;DHT22;12514;52.140;5.602;2022-08-21T16:22:07;24.20;99.90
23987;DHT22;12514;52.140;5.602;2022-08-21T16:24:35;24.20;99.90
23987;DHT22;12514;52.140;5.602;2022-08-21T16:27:01;24.30;99.90
23987;DHT22;12514;52.140;5.602;2022-08-21T16:29:33;24.20;99.90
23987;DHT22;12514;52.140;5.602;2022-08-21T16:31:59;24.10;99.90
23987;DHT22;12514;52.140;5.602;2022-08-21T16:34:25;24.10;99.90
23987;DHT22;12514;52.140;5.602;2022-08-21T16:36:53;24.00;99.90
23987;DHT22;12514;52.140;5.602;2022-08-21T16:39:18;24.00;99.90
23987;DHT22;12514;52.140;5.602;2022-08-21T16:41:44;23.90;99.90
23987;DHT22;12514;52.140;5.602;2022-08-21T16:44:13;23.90;99.90
23987;DHT22;12514;52.140;5.602;2022-08-21T16:46:40;23.80;99.90
23987;DHT22;12514;52.140;5.602;2022-08-21T16:52:28;24.00;99.90
23987;DHT22;12514;52.140;5.602;2022-08-21T16:54:54;23.80;99.90
23987;DHT22;12514;52.140;5.602;2022-08-21T16:57:20;24.00;99.90
23987;DHT22;12514;52.140;5.602;2022-08-21T16:59:46;24.00;99.90
23987;DHT22;12514;52.140;5.602;2022-08-21T17:02:39;24.00;99.90
23987;DHT22;12514;52.140;5.602;2022-08-21T17:05:06;23.90;99.90
23987;DHT22;12514;52.140;5.602;2022-08-21T17:07:32;23.90;99.90
23987;DHT22;12514;52.140;5.602;2022-08-21T17:09:58;23.70;99.90
23987;DHT22;12514;52.140;5.602;2022-08-21T17:12:24;23.60;99.90
23987;DHT22;12514;52.140;5.602;2022-08-21T17:14:50;23.60;99.90
23987;DHT22;12514;52.140;5.602;2022-08-21T17:17:16;23.50;99.90
23987;DHT22;12514;52.140;5.602;2022-08-21T17:19:42;23.40;99.90
23987;DHT22;12514;52.140;5.602;2022-08-21T17:22:10;23.40;99.90
23987;DHT22;12514;52.140;5.602;2022-08-21T17:24:37;23.30;99.90
23987;DHT22;12514;52.140;5.602;2022-08-21T17:27:04;23.10;99.90
23987;DHT22;12514;52.140;5.602;2022-08-21T17:29:34;23.30;99.90
23987;DHT22;12514;52.140;5.602;2022-08-21T17:32:02;23.40;99.90
23987;DHT22;12514;52.140;5.602;2022-08-21T17:37:50;23.20;99.90
23987;DHT22;12514;52.140;5.602;2022-08-21T17:40:18;23.40;99.90
23987;DHT22;12514;52.140;5.602;2022-08-21T17:42:46;23.10;99.90
23987;DHT22;12514;52.140;5.602;2022-08-21T17:45:14;23.10;99.90
23987;DHT22;12514;52.140;5.602;2022-08-21T17:47:40;23.10;99.90
23987;DHT22;12514;52.140;5.602;2022-08-21T17:50:19;23.20;99.90
23987;DHT22;12514;52.140;5.602;2022-08-21T17:52:45;23.10;99.90
23987;DHT22;12514;52.140;5.602;2022-08-21T17:55:12;23.20;99.90
23987;DHT22;12514;52.140;5.602;2022-08-21T17:57:39;23.30;99.90
23987;DHT22;12514;52.140;5.602;2022-08-21T18:00:08;23.30;99.90
23987;DHT22;12514;52.140;5.602;2022-08-21T18:02:36;23.40;99.90
23987;DHT22;12514;52.140;5.602;2022-08-21T18:05:04;23.30;99.90
23987;DHT22;12514;52.140;5.602;2022-08-21T18:07:30;22.90;99.90
23987;DHT22;12514;52.140;5.602;2022-08-21T18:09:56;22.80;99.90
23987;DHT22;12514;52.140;5.602;2022-08-21T18:12:22;22.80;99.90
23987;DHT22;12514;52.140;5.602;2022-08-21T18:14:48;22.80;99.90
23987;DHT22;12514;52.140;5.602;2022-08-21T18:17:17;22.90;99.90
23987;DHT22;12514;52.140;5.602;2022-08-21T18:23:06;22.70;99.90
23987;DHT22;12514;52.140;5.602;2022-08-21T18:25:32;22.60;99.90
23987;DHT22;12514;52.140;5.602;2022-08-21T18:28:00;22.70;99.90